sensor_id;sensor_type;location;lat;lon;timestamp;temperature;humidity
52725;DHT22;38621;52.830;6.914;2023-03-01T00:01:32;0.10;99.90
52725;DHT22;38621;52.830;6.914;2023-03-01T00:03:58;0.10;99.90
52725;DHT22;38621;52.830;6.914;2023-03-01T00:06:25;0.10;99.90
52725;DHT22;38621;52.830;6.914;2023-03-01T00:08:51;0.10;99.90
52725;DHT22;38621;52.830;6.914;2023-03-01T00:13:45;0.00;99.90
52725;DHT22;38621;52.830;6.914;2023-03-01T00:16:14;0.00;99.90
52725;DHT22;38621;52.830;6.914;2023-03-01T00:18:40;0.10;99.90
52725;DHT22;38621;52.830;6.914;2023-03-01T00:21:06;-0.10;99.90
52725;DHT22;38621;52.830;6.914;2023-03-01T00:23:34;-0.10;99.90
52725;DHT22;38621;52.830;6.914;2023-03-01T00:26:00;-0.10;99.90
52725;DHT22;38621;52.830;6.914;2023-03-01T00:28:26;-0.20;99.90
52725;DHT22;38621;52.830;6.914;2023-03-01T00:30:52;-0.20;99.90
52725;DHT22;38621;52.830;6.914;2023-03-01T00:33:18;-0.30;99.90
52725;DHT22;38621;52.830;6.914;2023-03-01T00:35:44;-0.50;99.90
52725;DHT22;38621;52.830;6.914;2023-03-01T00:38:10;-0.70;99.90
52725;DHT22;38621;52.830;6.914;2023-03-01T00:40:35;-0.80;99.90
52725;DHT22;38621;52.830;6.914;2023-03-01T00:43:02;-0.90;99.90
52725;DHT22;38621;52.830;6.914;2023-03-01T00:45:28;-1.00;99.90
52725;DHT22;38621;52.830;6.914;2023-03-01T00:47:56;-1.00;99.90
52725;DHT22;38621;52.830;6.914;2023-03-01T00:50:23;-1.10;99.90
52725;DHT22;38621;52.830;6.914;2023-03-01T00:52:53;-1.10;99.90
52725;DHT22;38621;52.830;6.914;2023-03-01T00:55:19;-1.10;99.90
52725;DHT22;38621;52.830;6.914;2023-03-01T00:57:44;-1.00;99.90
52725;DHT22;38621;52.830;6.914;2023-03-01T01:00:11;-0.90;99.90
52725;DHT22;38621;52.830;6.914;2023-03-01T01:02:37;-0.80;99.90
52725;DHT22;38621;52.830;6.914;2023-03-01T01:05:03;-0.80;99.90
52725;DHT22;38621;52.830;6.914;2023-03-01T01:07:29;-0.70;99.90
52725;DHT22;38621;52.830;6.914;2023-03-01T01:09:55;-0.70;99.90
52725;DHT22;38621;52.830;6.914;2023-03-01T01:12:20;-0.80;99.90
52725;DHT22;38621;52.830;6.914;2023-03-01T01:14:46;-0.90;99.90
52725;DHT22;38621;52.830;6.914;2023-03-01T01:17:12;-0.90;99.90
52725;DHT22;38621;52.830;6.914;2023-03-01T01:19:38;-0.90;99.90
52725;DHT22;38621;52.830;6.914;2023-03-01T01:22:03;-1.00;99.90
52725;DHT22;38621;52.830;6.914;2023-03-01T01:24:29;-1.20;99.90
52725;DHT22;38621;52.830;6.914;2023-03-01T01:26:55;-1.20;99.90
52725;DHT22;38621;52.830;6.914;2023-03-01T01:29:21;-1.20;99.90
52725;DHT22;38621;52.830;6.914;2023-03-01T01:31:47;-1.10;99.90
52725;DHT22;38621;52.830;6.914;2023-03-01T01:34:15;-0.90;99.90
52725;DHT22;38621;52.830;6.914;2023-03-01T01:36:41;-1.20;99.90
52725;DHT22;38621;52.830;6.914;2023-03-01T01:39:07;-1.40;99.90
52725;DHT22;38621;52.830;6.914;2023-03-01T01:41:33;-1.40;99.90
52725;DHT22;38621;52.830;6.914;2023-03-01T01:44:34;-1.50;99.90
52725;DHT22;38621;52.830;6.914;2023-03-01T01:47:16;-1.50;99.90
52725;DHT22;38621;52.830;6.914;2023-03-01T01:49:46;-1.60;99.90
52725;DHT22;38621;52.830;6.914;2023-03-01T01:52:27;-1.70;99.90
52725;DHT22;38621;52.830;6.914;2023-03-01T01:54:57;-1.70;99.90
52725;DHT22;38621;52.830;6.914;2023-03-01T01:57:32;-1.70;99.90
52725;DHT22;38621;52.830;6.914;2023-03-01T02:00:05;-1.70;99.90
52725;DHT22;38621;52.830;6.914;2023-03-01T02:02:32;-1.70;99.90
52725;DHT22;38621;52.830;6.914;2023-03-01T02:05:24;-1.70;99.90
52725;DHT22;38621;52.830;6.914;2023-03-01T02:07:52;-1.60;99.90
52725;DHT22;38621;52.830;6.914;2023-03-01T02:10:20;-1.50;99.90
52725;DHT22;38621;52.830;6.914;2023-03-01T02:12:46;-1.40;99.90
52725;DHT22;38621;52.830;6.914;2023-03-01T02:15:12;-1.40;99.90
52725;DHT22;38621;52.830;6.914;2023-03-01T02:17:38;-1.20;99.90
52725;DHT22;38621;52.830;6.914;2023-03-01T02:20:11;-1.30;99.90
52725;DHT22;38621;52.830;6.914;2023-03-01T02:22:39;-1.30;99.90
52725;DHT22;38621;52.830;6.914;2023-03-01T02:25:07;-1.30;99.90
52725;DHT22;38621;52.830;6.914;2023-03-01T02:30:22;-1.40;99.90
52725;DHT22;38621;52.830;6.914;2023-03-01T02:32:50;-1.40;99.90
52725;DHT22;38621;52.830;6.914;2023-03-01T02:35:18;-1.50;99.90
52725;DHT22;38621;52.830;6.914;2023-03-01T02:37:45;-1.30;99.90
52725;DHT22;38621;52.830;6.914;2023-03-01T02:40:16;-1.50;99.90
52725;DHT22;38621;52.830;6.914;2023-03-01T02:42:57;-1.60;99.90
52725;DHT22;38621;52.830;6.914;2023-03-01T02:45:24;-1.80;99.90
52725;DHT22;38621;52.830;6.914;2023-03-01T02:47:50;-1.90;99.90
52725;DHT22;38621;52.830;6.914;2023-03-01T02:55:27;-2.00;99.90
52725;DHT22;38621;52.830;6.914;2023-03-01T02:57:53;-2.10;99.90
52725;DHT22;38621;52.830;6.914;2023-03-01T03:00:34;-2.20;99.90
52725;DHT22;38621;52.830;6.914;2023-03-01T03:03:01;-2.20;99.90
52725;DHT22;38621;52.830;6.914;2023-03-01T03:05:29;-2.10;99.90
52725;DHT22;38621;52.830;6.914;2023-03-01T03:07:56;-2.00;99.90
52725;DHT22;38621;52.830;6.914;2023-03-01T03:10:38;-1.80;99.90
52725;DHT22;38621;52.830;6.914;2023-03-01T03:13:08;-1.70;99.90
52725;DHT22;38621;52.830;6.914;2023-03-01T03:15:34;-1.60;99.90
52725;DHT22;38621;52.830;6.914;2023-03-01T03:18:03;-1.50;99.90
52725;DHT22;38621;52.830;6.914;2023-03-01T03:20:29;-1.40;99.90
52725;DHT22;38621;52.830;6.914;2023-03-01T03:22:56;-1.40;99.90
52725;DHT22;38621;52.830;6.914;2023-03-01T03:25:23;-0.30;99.90
52725;DHT22;38621;52.830;6.914;2023-03-01T03:27:50;-1.20;99.90
52725;DHT22;38621;52.830;6.914;2023-03-01T03:30:27;-1.30;99.90
52725;DHT22;38621;52.830;6.914;2023-03-01T03:32:53;-1.50;99.90
52725;DHT22;38621;52.830;6.914;2023-03-01T03:35:24;-1.60;99.90
52725;DHT22;38621;52.830;6.914;2023-03-01T03:37:51;-1.70;99.90
52725;DHT22;38621;52.830;6.914;2023-03-01T03:40:38;-1.70;99.90
52725;DHT22;38621;52.830;6.914;2023-03-01T03:43:15;-1.80;99.90
52725;DHT22;38621;52.830;6.914;2023-03-01T03:45:43;-1.90;99.90
52725;DHT22;38621;52.830;6.914;2023-03-01T03:48:09;-1.90;99.90
52725;DHT22;38621;52.830;6.914;2023-03-01T03:50:36;-1.90;99.90
52725;DHT22;38621;52.830;6.914;2023-03-01T03:53:05;-1.90;99.90
52725;DHT22;38621;52.830;6.914;2023-03-01T03:55:31;-1.90;99.90
52725;DHT22;38621;52.830;6.914;2023-03-01T03:58:00;-1.90;99.90
52725;DHT22;38621;52.830;6.914;2023-03-01T04:00:33;-2.00;99.90
52725;DHT22;38621;52.830;6.914;2023-03-01T04:03:00;-2.20;99.90
52725;DHT22;38621;52.830;6.914;2023-03-01T04:05:26;-2.30;99.90
52725;DHT22;38621;52.830;6.914;2023-03-01T04:07:52;-2.40;99.90
52725;DHT22;38621;52.830;6.914;2023-03-01T04:10:30;-2.50;99.90
52725;DHT22;38621;52.830;6.914;2023-03-01T04:12:56;-2.40;99.90
52725;DHT22;38621;52.830;6.914;2023-03-01T04:15:23;-2.40;99.90
52725;DHT22;38621;52.830;6.914;2023-03-01T04:17:51;-2.40;99.90
52725;DHT22;38621;52.830;6.914;2023-03-01T04:20:23;-2.40;99.90
52725;DHT22;38621;52.830;6.914;2023-03-01T04:23:21;-2.40;99.90
52725;DHT22;38621;52.830;6.914;2023-03-01T04:25:55;-2.20;99.90
52725;DHT22;38621;52.830;6.914;2023-03-01T04:28:21;-2.20;99.90
52725;DHT22;38621;52.830;6.914;2023-03-01T04:30:47;-1.80;99.90
52725;DHT22;38621;52.830;6.914;2023-03-01T04:33:13;-2.20;99.90
52725;DHT22;38621;52.830;6.914;2023-03-01T04:35:39;-2.10;99.90
52725;DHT22;38621;52.830;6.914;2023-03-01T04:38:06;-2.00;99.90
52725;DHT22;38621;52.830;6.914;2023-03-01T04:40:32;-2.00;99.90
52725;DHT22;38621;52.830;6.914;2023-03-01T04:42:58;-1.90;99.90
52725;DHT22;38621;52.830;6.914;2023-03-01T04:45:24;-1.90;99.90
52725;DHT22;38621;52.830;6.914;2023-03-01T04:47:50;-1.80;99.90
52725;DHT22;38621;52.830;6.914;2023-03-01T04:50:18;-1.80;99.90
52725;DHT22;38621;52.830;6.914;2023-03-01T04:52:46;-1.90;99.90
52725;DHT22;38621;52.830;6.914;2023-03-01T04:55:13;-2.00;99.90
52725;DHT22;38621;52.830;6.914;2023-03-01T04:57:39;-2.00;99.90
52725;DHT22;38621;52.830;6.914;2023-03-01T05:00:07;-2.00;99.90
52725;DHT22;38621;52.830;6.914;2023-03-01T05:02:57;-2.10;99.90
52725;DHT22;38621;52.830;6.914;2023-03-01T05:05:26;-2.00;99.90
52725;DHT22;38621;52.830;6.914;2023-03-01T05:07:53;-2.00;99.90
52725;DHT22;38621;52.830;6.914;2023-03-01T05:10:19;-2.10;99.90
52725;DHT22;38621;52.830;6.914;2023-03-01T05:12:45;-2.10;99.90
52725;DHT22;38621;52.830;6.914;2023-03-01T05:15:12;-2.10;99.90
52725;DHT22;38621;52.830;6.914;2023-03-01T05:17:37;-2.10;99.90
52725;DHT22;38621;52.830;6.914;2023-03-01T05:20:03;-2.10;99.90
52725;DHT22;38621;52.830;6.914;2023-03-01T05:22:34;-2.20;99.90
52725;DHT22;38621;52.830;6.914;2023-03-01T05:25:00;-2.30;99.90
52725;DHT22;38621;52.830;6.914;2023-03-01T05:27:25;-2.40;99.90
52725;DHT22;38621;52.830;6.914;2023-03-01T05:29:51;-2.40;99.90
52725;DHT22;38621;52.830;6.914;2023-03-01T05:32:17;-2.50;99.90
52725;DHT22;38621;52.830;6.914;2023-03-01T05:34:43;-2.50;99.90
52725;DHT22;38621;52.830;6.914;2023-03-01T05:37:12;-2.40;99.90
52725;DHT22;38621;52.830;6.914;2023-03-01T05:39:37;-2.40;99.90
52725;DHT22;38621;52.830;6.914;2023-03-01T05:42:03;-2.40;99.90
52725;DHT22;38621;52.830;6.914;2023-03-01T05:44:29;-2.40;99.90
52725;DHT22;38621;52.830;6.914;2023-03-01T05:46:55;-2.30;99.90
52725;DHT22;38621;52.830;6.914;2023-03-01T05:49:22;-2.30;99.90
52725;DHT22;38621;52.830;6.914;2023-03-01T05:51:52;-2.30;99.90
52725;DHT22;38621;52.830;6.914;2023-03-01T05:54:19;-1.90;99.90
52725;DHT22;38621;52.830;6.914;2023-03-01T05:56:45;-2.30;99.90
52725;DHT22;38621;52.830;6.914;2023-03-01T05:59:12;-2.40;99.90
52725;DHT22;38621;52.830;6.914;2023-03-01T06:01:39;-2.50;99.90
52725;DHT22;38621;52.830;6.914;2023-03-01T06:04:05;-2.40;99.90
52725;DHT22;38621;52.830;6.914;2023-03-01T06:06:35;-2.40;99.90
52725;DHT22;38621;52.830;6.914;2023-03-01T06:09:03;-2.40;99.90
52725;DHT22;38621;52.830;6.914;2023-03-01T06:11:29;-2.50;99.90
52725;DHT22;38621;52.830;6.914;2023-03-01T06:13:55;-2.50;99.90
52725;DHT22;38621;52.830;6.914;2023-03-01T06:16:20;-2.60;99.90
52725;DHT22;38621;52.830;6.914;2023-03-01T06:18:46;-2.60;99.90
52725;DHT22;38621;52.830;6.914;2023-03-01T06:21:12;-2.60;99.90
52725;DHT22;38621;52.830;6.914;2023-03-01T06:23:37;-2.60;99.90
52725;DHT22;38621;52.830;6.914;2023-03-01T06:26:07;-2.70;99.90
52725;DHT22;38621;52.830;6.914;2023-03-01T06:28:34;-2.60;99.90
52725;DHT22;38621;52.830;6.914;2023-03-01T06:31:00;-2.60;99.90
52725;DHT22;38621;52.830;6.914;2023-03-01T06:33:25;-2.50;99.90
52725;DHT22;38621;52.830;6.914;2023-03-01T06:35:53;-2.40;99.90
52725;DHT22;38621;52.830;6.914;2023-03-01T06:38:19;-2.30;99.90
52725;DHT22;38621;52.830;6.914;2023-03-01T06:40:51;-2.30;99.90
52725;DHT22;38621;52.830;6.914;2023-03-01T06:43:17;-2.30;99.90
52725;DHT22;38621;52.830;6.914;2023-03-01T06:45:43;-2.30;99.90
52725;DHT22;38621;52.830;6.914;2023-03-01T06:48:08;-2.10;99.90
52725;DHT22;38621;52.830;6.914;2023-03-01T06:50:35;-2.20;99.90
52725;DHT22;38621;52.830;6.914;2023-03-01T06:53:01;-2.20;99.90
52725;DHT22;38621;52.830;6.914;2023-03-01T06:55:26;-2.20;99.90
52725;DHT22;38621;52.830;6.914;2023-03-01T06:57:58;-2.20;99.90
52725;DHT22;38621;52.830;6.914;2023-03-01T07:00:25;-2.40;99.90
52725;DHT22;38621;52.830;6.914;2023-03-01T07:02:52;-2.10;99.90
52725;DHT22;38621;52.830;6.914;2023-03-01T07:05:18;-2.10;99.90
52725;DHT22;38621;52.830;6.914;2023-03-01T07:07:44;-2.10;99.90
52725;DHT22;38621;52.830;6.914;2023-03-01T07:10:10;-2.10;99.90
52725;DHT22;38621;52.830;6.914;2023-03-01T07:12:36;-2.00;99.90
52725;DHT22;38621;52.830;6.914;2023-03-01T07:15:02;-2.00;99.90
52725;DHT22;38621;52.830;6.914;2023-03-01T07:17:28;-1.90;99.90
52725;DHT22;38621;52.830;6.914;2023-03-01T07:19:54;-1.90;99.90
52725;DHT22;38621;52.830;6.914;2023-03-01T07:22:20;-1.80;99.90
52725;DHT22;38621;52.830;6.914;2023-03-01T07:24:45;-1.70;99.90
52725;DHT22;38621;52.830;6.914;2023-03-01T07:27:11;-1.70;99.90
52725;DHT22;38621;52.830;6.914;2023-03-01T07:29:37;-1.60;99.90
52725;DHT22;38621;52.830;6.914;2023-03-01T07:32:04;-1.50;99.90
52725;DHT22;38621;52.830;6.914;2023-03-01T07:34:30;-1.40;99.90
52725;DHT22;38621;52.830;6.914;2023-03-01T07:36:55;-1.30;99.90
52725;DHT22;38621;52.830;6.914;2023-03-01T07:39:21;-1.20;99.90
52725;DHT22;38621;52.830;6.914;2023-03-01T07:41:49;-1.20;99.90
52725;DHT22;38621;52.830;6.914;2023-03-01T07:44:15;-1.10;99.90
52725;DHT22;38621;52.830;6.914;2023-03-01T07:46:42;-1.00;99.90
52725;DHT22;38621;52.830;6.914;2023-03-01T07:49:07;-0.80;99.90
52725;DHT22;38621;52.830;6.914;2023-03-01T07:51:33;0.00;99.90
52725;DHT22;38621;52.830;6.914;2023-03-01T07:53:59;-0.60;99.90
52725;DHT22;38621;52.830;6.914;2023-03-01T07:56:24;-0.60;99.90
52725;DHT22;38621;52.830;6.914;2023-03-01T07:58:50;-0.50;99.90
52725;DHT22;38621;52.830;6.914;2023-03-01T08:01:18;-0.40;99.90
52725;DHT22;38621;52.830;6.914;2023-03-01T08:03:44;-0.30;99.90
52725;DHT22;38621;52.830;6.914;2023-03-01T08:06:12;-0.10;99.90
52725;DHT22;38621;52.830;6.914;2023-03-01T08:08:38;0.00;99.90
52725;DHT22;38621;52.830;6.914;2023-03-01T08:11:05;0.10;99.90
52725;DHT22;38621;52.830;6.914;2023-03-01T08:13:32;0.20;99.90
52725;DHT22;38621;52.830;6.914;2023-03-01T08:16:07;0.30;99.90
52725;DHT22;38621;52.830;6.914;2023-03-01T08:18:33;0.40;99.90
52725;DHT22;38621;52.830;6.914;2023-03-01T08:21:04;0.60;99.90
52725;DHT22;38621;52.830;6.914;2023-03-01T08:23:30;0.60;99.90
52725;DHT22;38621;52.830;6.914;2023-03-01T08:26:06;0.80;99.90
52725;DHT22;38621;52.830;6.914;2023-03-01T08:28:32;0.80;99.90
52725;DHT22;38621;52.830;6.914;2023-03-01T08:30:58;1.10;99.90
52725;DHT22;38621;52.830;6.914;2023-03-01T08:33:24;1.00;99.90
52725;DHT22;38621;52.830;6.914;2023-03-01T08:35:50;1.10;99.90
52725;DHT22;38621;52.830;6.914;2023-03-01T08:38:15;1.20;99.90
52725;DHT22;38621;52.830;6.914;2023-03-01T08:40:41;1.50;99.90
52725;DHT22;38621;52.830;6.914;2023-03-01T08:43:07;1.40;99.90
52725;DHT22;38621;52.830;6.914;2023-03-01T08:45:32;1.50;99.90
52725;DHT22;38621;52.830;6.914;2023-03-01T08:47:58;1.50;99.90
52725;DHT22;38621;52.830;6.914;2023-03-01T08:50:24;1.60;99.90
52725;DHT22;38621;52.830;6.914;2023-03-01T08:52:50;1.60;99.90
52725;DHT22;38621;52.830;6.914;2023-03-01T08:55:16;2.00;99.90
52725;DHT22;38621;52.830;6.914;2023-03-01T08:57:43;1.80;99.90
52725;DHT22;38621;52.830;6.914;2023-03-01T09:00:10;1.90;99.90
52725;DHT22;38621;52.830;6.914;2023-03-01T09:02:37;2.00;99.90
52725;DHT22;38621;52.830;6.914;2023-03-01T09:05:04;2.30;99.90
52725;DHT22;38621;52.830;6.914;2023-03-01T09:07:30;2.30;99.90
52725;DHT22;38621;52.830;6.914;2023-03-01T09:09:55;2.40;99.90
52725;DHT22;38621;52.830;6.914;2023-03-01T09:12:21;2.60;99.90
52725;DHT22;38621;52.830;6.914;2023-03-01T09:14:47;2.70;99.90
52725;DHT22;38621;52.830;6.914;2023-03-01T09:17:13;2.90;99.90
52725;DHT22;38621;52.830;6.914;2023-03-01T09:19:39;3.00;99.90
52725;DHT22;38621;52.830;6.914;2023-03-01T09:22:04;3.10;99.90
52725;DHT22;38621;52.830;6.914;2023-03-01T09:24:30;3.30;99.90
52725;DHT22;38621;52.830;6.914;2023-03-01T09:26:56;3.40;99.90
52725;DHT22;38621;52.830;6.914;2023-03-01T09:29:22;3.60;99.90
52725;DHT22;38621;52.830;6.914;2023-03-01T09:31:48;3.70;99.90
52725;DHT22;38621;52.830;6.914;2023-03-01T09:34:14;3.80;99.90
52725;DHT22;38621;52.830;6.914;2023-03-01T09:36:41;4.00;99.90
52725;DHT22;38621;52.830;6.914;2023-03-01T09:39:07;4.20;99.90
52725;DHT22;38621;52.830;6.914;2023-03-01T09:41:57;4.30;99.90
52725;DHT22;38621;52.830;6.914;2023-03-01T09:46:51;4.00;99.90
52725;DHT22;38621;52.830;6.914;2023-03-01T09:49:20;4.60;99.90
52725;DHT22;38621;52.830;6.914;2023-03-01T09:54:40;4.90;99.90
52725;DHT22;38621;52.830;6.914;2023-03-01T10:02:42;5.30;99.90
52725;DHT22;38621;52.830;6.914;2023-03-01T10:10:37;6.80;99.90
52725;DHT22;38621;52.830;6.914;2023-03-01T10:13:13;7.20;99.90
52725;DHT22;38621;52.830;6.914;2023-03-01T10:15:48;7.50;99.90
52725;DHT22;38621;52.830;6.914;2023-03-01T10:18:19;7.80;99.90
52725;DHT22;38621;52.830;6.914;2023-03-01T10:20:51;8.10;99.90
52725;DHT22;38621;52.830;6.914;2023-03-01T10:23:17;8.30;99.90
52725;DHT22;38621;52.830;6.914;2023-03-01T10:31:20;8.90;99.90
52725;DHT22;38621;52.830;6.914;2023-03-01T10:33:47;9.10;99.90
52725;DHT22;38621;52.830;6.914;2023-03-01T10:36:17;9.30;99.90
52725;DHT22;38621;52.830;6.914;2023-03-01T10:38:54;9.30;99.90
52725;DHT22;38621;52.830;6.914;2023-03-01T10:41:25;9.50;99.90
52725;DHT22;38621;52.830;6.914;2023-03-01T10:43:54;9.70;99.90
52725;DHT22;38621;52.830;6.914;2023-03-01T10:49:17;10.10;99.90
52725;DHT22;38621;52.830;6.914;2023-03-01T10:51:45;10.30;99.90
52725;DHT22;38621;52.830;6.914;2023-03-01T10:54:27;10.40;99.90
52725;DHT22;38621;52.830;6.914;2023-03-01T10:56:58;10.50;99.90
52725;DHT22;38621;52.830;6.914;2023-03-01T10:59:36;10.50;99.90
52725;DHT22;38621;52.830;6.914;2023-03-01T11:02:22;10.60;99.90
52725;DHT22;38621;52.830;6.914;2023-03-01T11:04:59;10.60;99.90
52725;DHT22;38621;52.830;6.914;2023-03-01T11:07:25;10.80;99.90
52725;DHT22;38621;52.830;6.914;2023-03-01T11:09:51;10.80;99.90
52725;DHT22;38621;52.830;6.914;2023-03-01T11:12:17;10.80;99.90
52725;DHT22;38621;52.830;6.914;2023-03-01T11:14:52;10.80;99.90
52725;DHT22;38621;52.830;6.914;2023-03-01T11:17:23;10.60;99.90
52725;DHT22;38621;52.830;6.914;2023-03-01T11:20:06;10.60;99.90
52725;DHT22;38621;52.830;6.914;2023-03-01T11:22:48;10.70;99.90
52725;DHT22;38621;52.830;6.914;2023-03-01T11:25:17;10.70;99.90
52725;DHT22;38621;52.830;6.914;2023-03-01T11:27:45;10.60;99.90
52725;DHT22;38621;52.830;6.914;2023-03-01T11:35:35;10.30;99.90
52725;DHT22;38621;52.830;6.914;2023-03-01T11:38:22;10.40;99.90
52725;DHT22;38621;52.830;6.914;2023-03-01T12:16:22;9.50;99.90
52725;DHT22;38621;52.830;6.914;2023-03-01T12:21:59;9.20;99.90
52725;DHT22;38621;52.830;6.914;2023-03-01T12:49:55;13.70;99.90
52725;DHT22;38621;52.830;6.914;2023-03-01T12:52:49;13.20;99.90
52725;DHT22;38621;52.830;6.914;2023-03-01T12:55:41;13.10;99.90
52725;DHT22;38621;52.830;6.914;2023-03-01T12:58:25;13.30;99.90
52725;DHT22;38621;52.830;6.914;2023-03-01T13:11:57;14.50;99.90
52725;DHT22;38621;52.830;6.914;2023-03-01T13:16:49;13.20;99.90
52725;DHT22;38621;52.830;6.914;2023-03-01T13:19:19;12.40;99.90
52725;DHT22;38621;52.830;6.914;2023-03-01T13:21:47;11.80;99.90
52725;DHT22;38621;52.830;6.914;2023-03-01T13:24:40;11.20;99.90
52725;DHT22;38621;52.830;6.914;2023-03-01T13:29:49;10.30;99.90
52725;DHT22;38621;52.830;6.914;2023-03-01T13:32:26;10.10;99.90
52725;DHT22;38621;52.830;6.914;2023-03-01T13:37:45;9.80;99.90
52725;DHT22;38621;52.830;6.914;2023-03-01T13:42:46;10.20;99.90
52725;DHT22;38621;52.830;6.914;2023-03-01T13:47:52;10.50;99.90
52725;DHT22;38621;52.830;6.914;2023-03-01T13:50:23;10.80;99.90
52725;DHT22;38621;52.830;6.914;2023-03-01T13:53:17;10.80;99.90
52725;DHT22;38621;52.830;6.914;2023-03-01T13:55:54;10.60;99.90
52725;DHT22;38621;52.830;6.914;2023-03-01T13:58:26;10.50;99.90
52725;DHT22;38621;52.830;6.914;2023-03-01T14:01:04;10.60;99.90
52725;DHT22;38621;52.830;6.914;2023-03-01T14:03:32;10.70;99.90
52725;DHT22;38621;52.830;6.914;2023-03-01T14:06:14;10.80;99.90
52725;DHT22;38621;52.830;6.914;2023-03-01T14:08:42;10.70;99.90
52725;DHT22;38621;52.830;6.914;2023-03-01T14:13:54;10.30;99.90
52725;DHT22;38621;52.830;6.914;2023-03-01T14:19:21;9.90;99.90
52725;DHT22;38621;52.830;6.914;2023-03-01T14:25:05;9.60;99.90
52725;DHT22;38621;52.830;6.914;2023-03-01T14:27:37;9.40;99.90
52725;DHT22;38621;52.830;6.914;2023-03-01T14:30:21;9.30;99.90
52725;DHT22;38621;52.830;6.914;2023-03-01T14:32:59;9.20;99.90
52725;DHT22;38621;52.830;6.914;2023-03-01T14:35:31;9.00;99.90
52725;DHT22;38621;52.830;6.914;2023-03-01T14:37:57;8.90;99.90
52725;DHT22;38621;52.830;6.914;2023-03-01T14:40:27;8.90;99.90
52725;DHT22;38621;52.830;6.914;2023-03-01T14:42:55;8.80;99.90
52725;DHT22;38621;52.830;6.914;2023-03-01T14:45:27;8.80;99.90
52725;DHT22;38621;52.830;6.914;2023-03-01T14:47:55;8.80;99.90
52725;DHT22;38621;52.830;6.914;2023-03-01T14:50:45;8.80;99.90
52725;DHT22;38621;52.830;6.914;2023-03-01T14:53:18;8.80;99.90
52725;DHT22;38621;52.830;6.914;2023-03-01T14:56:05;8.70;99.90
52725;DHT22;38621;52.830;6.914;2023-03-01T14:58:34;8.70;99.90
52725;DHT22;38621;52.830;6.914;2023-03-01T15:01:04;8.70;99.90
52725;DHT22;38621;52.830;6.914;2023-03-01T15:03:40;8.70;99.90
52725;DHT22;38621;52.830;6.914;2023-03-01T15:06:08;8.70;99.90
52725;DHT22;38621;52.830;6.914;2023-03-01T15:08:35;8.70;99.90
52725;DHT22;38621;52.830;6.914;2023-03-01T15:11:21;8.80;99.90
52725;DHT22;38621;52.830;6.914;2023-03-01T15:13:50;9.10;99.90
52725;DHT22;38621;52.830;6.914;2023-03-01T15:16:25;9.30;99.90
52725;DHT22;38621;52.830;6.914;2023-03-01T15:18:56;9.30;99.90
52725;DHT22;38621;52.830;6.914;2023-03-01T15:21:25;9.50;99.90
52725;DHT22;38621;52.830;6.914;2023-03-01T15:26:49;9.40;99.90
52725;DHT22;38621;52.830;6.914;2023-03-01T15:29:23;9.50;99.90
52725;DHT22;38621;52.830;6.914;2023-03-01T15:32:02;9.60;99.90
52725;DHT22;38621;52.830;6.914;2023-03-01T15:34:34;9.70;99.90
52725;DHT22;38621;52.830;6.914;2023-03-01T15:37:04;9.90;99.90
52725;DHT22;38621;52.830;6.914;2023-03-01T15:39:39;10.10;99.90
52725;DHT22;38621;52.830;6.914;2023-03-01T15:44:36;10.30;99.90
52725;DHT22;38621;52.830;6.914;2023-03-01T15:47:06;10.90;99.90
52725;DHT22;38621;52.830;6.914;2023-03-01T15:49:41;11.50;99.90
52725;DHT22;38621;52.830;6.914;2023-03-01T15:52:20;11.80;99.90
52725;DHT22;38621;52.830;6.914;2023-03-01T15:54:46;11.80;99.90
52725;DHT22;38621;52.830;6.914;2023-03-01T15:57:13;11.70;99.90
52725;DHT22;38621;52.830;6.914;2023-03-01T15:59:41;11.50;99.90
52725;DHT22;38621;52.830;6.914;2023-03-01T16:02:11;11.20;99.90
52725;DHT22;38621;52.830;6.914;2023-03-01T16:04:39;10.90;99.90
52725;DHT22;38621;52.830;6.914;2023-03-01T16:07:05;10.60;99.90
52725;DHT22;38621;52.830;6.914;2023-03-01T16:09:31;10.50;99.90
52725;DHT22;38621;52.830;6.914;2023-03-01T16:11:58;10.20;99.90
52725;DHT22;38621;52.830;6.914;2023-03-01T16:14:23;9.90;99.90
52725;DHT22;38621;52.830;6.914;2023-03-01T16:16:49;9.80;99.90
52725;DHT22;38621;52.830;6.914;2023-03-01T16:19:15;9.80;99.90
52725;DHT22;38621;52.830;6.914;2023-03-01T16:21:42;9.70;99.90
52725;DHT22;38621;52.830;6.914;2023-03-01T16:24:12;9.60;99.90
52725;DHT22;38621;52.830;6.914;2023-03-01T16:26:38;9.50;99.90
52725;DHT22;38621;52.830;6.914;2023-03-01T16:29:04;9.40;99.90
52725;DHT22;38621;52.830;6.914;2023-03-01T16:31:30;9.30;99.90
52725;DHT22;38621;52.830;6.914;2023-03-01T16:33:57;9.20;99.90
52725;DHT22;38621;52.830;6.914;2023-03-01T16:36:25;9.20;99.90
52725;DHT22;38621;52.830;6.914;2023-03-01T16:38:51;9.40;99.90
52725;DHT22;38621;52.830;6.914;2023-03-01T16:41:21;9.40;99.90
52725;DHT22;38621;52.830;6.914;2023-03-01T16:43:48;9.60;99.90
52725;DHT22;38621;52.830;6.914;2023-03-01T16:46:20;9.80;99.90
52725;DHT22;38621;52.830;6.914;2023-03-01T16:48:46;10.00;99.90
52725;DHT22;38621;52.830;6.914;2023-03-01T16:51:12;10.00;99.90
52725;DHT22;38621;52.830;6.914;2023-03-01T16:53:39;9.90;99.90
52725;DHT22;38621;52.830;6.914;2023-03-01T16:56:08;9.60;99.90
52725;DHT22;38621;52.830;6.914;2023-03-01T16:58:35;9.50;99.90
52725;DHT22;38621;52.830;6.914;2023-03-01T17:01:07;9.30;99.90
52725;DHT22;38621;52.830;6.914;2023-03-01T17:03:33;9.10;99.90
52725;DHT22;38621;52.830;6.914;2023-03-01T17:06:04;8.80;99.90
52725;DHT22;38621;52.830;6.914;2023-03-01T17:08:30;8.30;99.90
52725;DHT22;38621;52.830;6.914;2023-03-01T17:11:05;7.80;99.90
52725;DHT22;38621;52.830;6.914;2023-03-01T17:13:31;7.40;99.90
52725;DHT22;38621;52.830;6.914;2023-03-01T17:15:57;7.00;99.90
52725;DHT22;38621;52.830;6.914;2023-03-01T17:18:23;6.70;99.90
52725;DHT22;38621;52.830;6.914;2023-03-01T17:20:49;6.40;99.90
52725;DHT22;38621;52.830;6.914;2023-03-01T17:23:15;6.20;99.90
52725;DHT22;38621;52.830;6.914;2023-03-01T17:25:44;6.10;99.90
52725;DHT22;38621;52.830;6.914;2023-03-01T17:28:12;5.90;99.90
52725;DHT22;38621;52.830;6.914;2023-03-01T17:30:41;5.70;99.90
52725;DHT22;38621;52.830;6.914;2023-03-01T17:33:07;5.60;99.90
52725;DHT22;38621;52.830;6.914;2023-03-01T17:35:32;5.50;99.90
52725;DHT22;38621;52.830;6.914;2023-03-01T17:38:02;5.30;99.90
52725;DHT22;38621;52.830;6.914;2023-03-01T17:40:27;5.20;99.90
52725;DHT22;38621;52.830;6.914;2023-03-01T17:42:53;5.10;99.90
52725;DHT22;38621;52.830;6.914;2023-03-01T17:45:19;4.90;99.90
52725;DHT22;38621;52.830;6.914;2023-03-01T17:47:44;4.80;99.90
52725;DHT22;38621;52.830;6.914;2023-03-01T17:50:10;4.70;99.90
52725;DHT22;38621;52.830;6.914;2023-03-01T17:52:36;4.70;99.90
52725;DHT22;38621;52.830;6.914;2023-03-01T17:55:03;4.60;99.90
52725;DHT22;38621;52.830;6.914;2023-03-01T17:57:29;4.60;99.90
52725;DHT22;38621;52.830;6.914;2023-03-01T17:59:55;4.50;99.90
52725;DHT22;38621;52.830;6.914;2023-03-01T18:02:21;4.50;99.90
52725;DHT22;38621;52.830;6.914;2023-03-01T18:04:47;4.50;99.90
52725;DHT22;38621;52.830;6.914;2023-03-01T18:07:12;4.40;99.90
52725;DHT22;38621;52.830;6.914;2023-03-01T18:09:38;4.30;99.90
52725;DHT22;38621;52.830;6.914;2023-03-01T18:12:04;4.20;99.90